sensor_id;sensor_type;location;lat;lon;timestamp;P1;durP1;ratioP1;P2;durP2;ratioP2
11646;SDS011;5880;52.342;9.662;2023-07-08T00:01:15;2.40;;;2.20;;
11646;SDS011;5880;52.342;9.662;2023-07-08T00:03:44;2.40;;;2.20;;
11646;SDS011;5880;52.342;9.662;2023-07-08T00:06:12;2.95;;;2.25;;
11646;SDS011;5880;52.342;9.662;2023-07-08T00:08:50;3.20;;;2.03;;
11646;SDS011;5880;52.342;9.662;2023-07-08T00:11:15;2.90;;;2.60;;
11646;SDS011;5880;52.342;9.662;2023-07-08T00:13:42;2.40;;;2.20;;
11646;SDS011;5880;52.342;9.662;2023-07-08T00:16:09;2.38;;;2.17;;
11646;SDS011;5880;52.342;9.662;2023-07-08T00:18:40;3.05;;;2.28;;
11646;SDS011;5880;52.342;9.662;2023-07-08T00:21:08;2.65;;;2.20;;
11646;SDS011;5880;52.342;9.662;2023-07-08T00:23:45;3.13;;;2.50;;
11646;SDS011;5880;52.342;9.662;2023-07-08T00:26:21;2.78;;;2.42;;
11646;SDS011;5880;52.342;9.662;2023-07-08T00:28:51;2.60;;;2.38;;
11646;SDS011;5880;52.342;9.662;2023-07-08T00:31:18;3.28;;;2.40;;
11646;SDS011;5880;52.342;9.662;2023-07-08T00:33:48;3.28;;;2.40;;
11646;SDS011;5880;52.342;9.662;2023-07-08T00:36:15;2.40;;;2.20;;
11646;SDS011;5880;52.342;9.662;2023-07-08T00:38:42;2.85;;;2.55;;
11646;SDS011;5880;52.342;9.662;2023-07-08T00:44:07;2.42;;;2.22;;
11646;SDS011;5880;52.342;9.662;2023-07-08T00:46:40;3.55;;;2.65;;
11646;SDS011;5880;52.342;9.662;2023-07-08T00:49:32;2.65;;;2.45;;
11646;SDS011;5880;52.342;9.662;2023-07-08T00:52:27;3.90;;;2.63;;
11646;SDS011;5880;52.342;9.662;2023-07-08T00:54:55;3.53;;;2.50;;
11646;SDS011;5880;52.342;9.662;2023-07-08T00:57:36;2.75;;;2.50;;
11646;SDS011;5880;52.342;9.662;2023-07-08T01:00:09;3.33;;;2.72;;
11646;SDS011;5880;52.342;9.662;2023-07-08T01:02:42;3.10;;;2.70;;
11646;SDS011;5880;52.342;9.662;2023-07-08T01:05:15;2.63;;;2.42;;
11646;SDS011;5880;52.342;9.662;2023-07-08T01:07:49;2.70;;;2.42;;
11646;SDS011;5880;52.342;9.662;2023-07-08T01:10:22;2.83;;;2.55;;
11646;SDS011;5880;52.342;9.662;2023-07-08T01:12:58;2.92;;;2.63;;
11646;SDS011;5880;52.342;9.662;2023-07-08T01:15:33;3.10;;;2.80;;
11646;SDS011;5880;52.342;9.662;2023-07-08T01:18:05;2.80;;;2.50;;
11646;SDS011;5880;52.342;9.662;2023-07-08T01:20:34;3.10;;;2.80;;
11646;SDS011;5880;52.342;9.662;2023-07-08T01:23:00;4.93;;;2.85;;
11646;SDS011;5880;52.342;9.662;2023-07-08T01:25:26;2.72;;;2.47;;
11646;SDS011;5880;52.342;9.662;2023-07-08T01:27:54;2.80;;;2.60;;
11646;SDS011;5880;52.342;9.662;2023-07-08T01:30:22;2.83;;;2.63;;
11646;SDS011;5880;52.342;9.662;2023-07-08T01:32:49;3.13;;;2.85;;
11646;SDS011;5880;52.342;9.662;2023-07-08T01:35:20;3.00;;;2.70;;
11646;SDS011;5880;52.342;9.662;2023-07-08T01:37:49;3.22;;;2.70;;
11646;SDS011;5880;52.342;9.662;2023-07-08T01:40:27;2.88;;;2.58;;
11646;SDS011;5880;52.342;9.662;2023-07-08T01:42:54;2.63;;;2.38;;
11646;SDS011;5880;52.342;9.662;2023-07-08T01:45:23;3.00;;;2.70;;
11646;SDS011;5880;52.342;9.662;2023-07-08T01:47:57;2.45;;;2.28;;
11646;SDS011;5880;52.342;9.662;2023-07-08T01:50:31;2.50;;;2.22;;
11646;SDS011;5880;52.342;9.662;2023-07-08T01:53:02;3.53;;;2.90;;
11646;SDS011;5880;52.342;9.662;2023-07-08T01:55:36;3.17;;;2.65;;
11646;SDS011;5880;52.342;9.662;2023-07-08T01:58:02;3.03;;;2.55;;
11646;SDS011;5880;52.342;9.662;2023-07-08T02:00:28;2.50;;;2.30;;
11646;SDS011;5880;52.342;9.662;2023-07-08T02:02:53;2.65;;;2.45;;
11646;SDS011;5880;52.342;9.662;2023-07-08T02:05:19;2.95;;;2.65;;
11646;SDS011;5880;52.342;9.662;2023-07-08T02:07:44;2.97;;;2.67;;
11646;SDS011;5880;52.342;9.662;2023-07-08T02:10:10;2.63;;;2.42;;
11646;SDS011;5880;52.342;9.662;2023-07-08T02:12:36;3.33;;;2.50;;
11646;SDS011;5880;52.342;9.662;2023-07-08T02:15:02;2.60;;;2.40;;
11646;SDS011;5880;52.342;9.662;2023-07-08T02:17:29;2.67;;;2.42;;
11646;SDS011;5880;52.342;9.662;2023-07-08T02:19:55;2.65;;;2.45;;
11646;SDS011;5880;52.342;9.662;2023-07-08T02:22:21;3.83;;;2.63;;
11646;SDS011;5880;52.342;9.662;2023-07-08T02:24:48;2.67;;;2.30;;
11646;SDS011;5880;52.342;9.662;2023-07-08T02:27:14;3.17;;;2.50;;
11646;SDS011;5880;52.342;9.662;2023-07-08T02:29:40;2.53;;;2.33;;
11646;SDS011;5880;52.342;9.662;2023-07-08T02:32:06;2.95;;;2.50;;
11646;SDS011;5880;52.342;9.662;2023-07-08T02:34:34;4.40;;;2.42;;
11646;SDS011;5880;52.342;9.662;2023-07-08T02:37:01;2.15;;;1.98;;
11646;SDS011;5880;52.342;9.662;2023-07-08T02:39:27;2.35;;;2.15;;
11646;SDS011;5880;52.342;9.662;2023-07-08T02:41:53;2.38;;;2.17;;
11646;SDS011;5880;52.342;9.662;2023-07-08T02:44:18;2.97;;;2.40;;
11646;SDS011;5880;52.342;9.662;2023-07-08T02:46:44;2.40;;;2.20;;
11646;SDS011;5880;52.342;9.662;2023-07-08T02:49:09;2.40;;;2.20;;
11646;SDS011;5880;52.342;9.662;2023-07-08T02:51:35;2.70;;;2.50;;
11646;SDS011;5880;52.342;9.662;2023-07-08T02:54:01;2.38;;;2.17;;
11646;SDS011;5880;52.342;9.662;2023-07-08T02:56:26;2.45;;;2.25;;
11646;SDS011;5880;52.342;9.662;2023-07-08T02:58:52;2.65;;;2.45;;
11646;SDS011;5880;52.342;9.662;2023-07-08T03:01:18;2.53;;;2.30;;
11646;SDS011;5880;52.342;9.662;2023-07-08T03:03:44;2.67;;;2.47;;
11646;SDS011;5880;52.342;9.662;2023-07-08T03:06:11;2.90;;;2.60;;
11646;SDS011;5880;52.342;9.662;2023-07-08T03:08:38;2.67;;;2.47;;
11646;SDS011;5880;52.342;9.662;2023-07-08T03:11:04;2.88;;;2.67;;
11646;SDS011;5880;52.342;9.662;2023-07-08T03:13:33;2.35;;;2.15;;
11646;SDS011;5880;52.342;9.662;2023-07-08T03:16:00;2.95;;;2.67;;
11646;SDS011;5880;52.342;9.662;2023-07-08T03:18:27;2.72;;;2.42;;
11646;SDS011;5880;52.342;9.662;2023-07-08T03:20:57;3.40;;;2.40;;
11646;SDS011;5880;52.342;9.662;2023-07-08T03:23:23;3.58;;;2.50;;
11646;SDS011;5880;52.342;9.662;2023-07-08T03:25:50;3.00;;;2.33;;
11646;SDS011;5880;52.342;9.662;2023-07-08T03:28:16;4.05;;;2.47;;
11646;SDS011;5880;52.342;9.662;2023-07-08T03:30:42;2.90;;;2.60;;
11646;SDS011;5880;52.342;9.662;2023-07-08T03:33:09;3.85;;;2.60;;
11646;SDS011;5880;52.342;9.662;2023-07-08T03:35:36;2.78;;;2.33;;
11646;SDS011;5880;52.342;9.662;2023-07-08T03:38:05;2.55;;;2.30;;
11646;SDS011;5880;52.342;9.662;2023-07-08T03:40:31;3.30;;;2.30;;
11646;SDS011;5880;52.342;9.662;2023-07-08T03:42:57;2.40;;;2.20;;
11646;SDS011;5880;52.342;9.662;2023-07-08T03:45:23;2.70;;;2.50;;
11646;SDS011;5880;52.342;9.662;2023-07-08T03:47:50;2.80;;;2.50;;
11646;SDS011;5880;52.342;9.662;2023-07-08T03:50:19;2.70;;;2.20;;
11646;SDS011;5880;52.342;9.662;2023-07-08T03:52:48;2.83;;;2.53;;
11646;SDS011;5880;52.342;9.662;2023-07-08T03:55:16;2.80;;;2.47;;
11646;SDS011;5880;52.342;9.662;2023-07-08T03:57:42;3.33;;;2.70;;
11646;SDS011;5880;52.342;9.662;2023-07-08T04:00:09;2.60;;;2.40;;
11646;SDS011;5880;52.342;9.662;2023-07-08T04:02:39;3.10;;;2.65;;
11646;SDS011;5880;52.342;9.662;2023-07-08T04:05:06;2.90;;;2.60;;
11646;SDS011;5880;52.342;9.662;2023-07-08T04:07:39;2.83;;;2.63;;
11646;SDS011;5880;52.342;9.662;2023-07-08T04:10:05;2.83;;;2.55;;
11646;SDS011;5880;52.342;9.662;2023-07-08T04:12:32;2.65;;;2.45;;
11646;SDS011;5880;52.342;9.662;2023-07-08T04:14:58;2.97;;;2.67;;
11646;SDS011;5880;52.342;9.662;2023-07-08T04:17:24;3.17;;;2.90;;
11646;SDS011;5880;52.342;9.662;2023-07-08T04:19:50;5.80;;;3.03;;
11646;SDS011;5880;52.342;9.662;2023-07-08T04:22:15;3.17;;;2.88;;
11646;SDS011;5880;52.342;9.662;2023-07-08T04:24:42;3.20;;;2.90;;
11646;SDS011;5880;52.342;9.662;2023-07-08T04:27:11;3.30;;;3.00;;
11646;SDS011;5880;52.342;9.662;2023-07-08T04:29:42;3.30;;;3.00;;
11646;SDS011;5880;52.342;9.662;2023-07-08T04:32:09;3.47;;;3.00;;
11646;SDS011;5880;52.342;9.662;2023-07-08T04:34:35;3.35;;;3.00;;
11646;SDS011;5880;52.342;9.662;2023-07-08T04:37:00;4.97;;;3.30;;
11646;SDS011;5880;52.342;9.662;2023-07-08T04:39:26;3.92;;;3.10;;
11646;SDS011;5880;52.342;9.662;2023-07-08T04:41:52;4.70;;;2.80;;
11646;SDS011;5880;52.342;9.662;2023-07-08T04:44:17;3.40;;;3.10;;
11646;SDS011;5880;52.342;9.662;2023-07-08T04:49:23;3.30;;;3.00;;
11646;SDS011;5880;52.342;9.662;2023-07-08T04:51:50;3.22;;;2.92;;
11646;SDS011;5880;52.342;9.662;2023-07-08T04:54:17;3.75;;;2.88;;
11646;SDS011;5880;52.342;9.662;2023-07-08T04:56:46;3.70;;;3.38;;
11646;SDS011;5880;52.342;9.662;2023-07-08T04:59:15;2.75;;;2.53;;
11646;SDS011;5880;52.342;9.662;2023-07-08T05:01:43;2.95;;;2.58;;
11646;SDS011;5880;52.342;9.662;2023-07-08T05:04:14;3.47;;;3.17;;
11646;SDS011;5880;52.342;9.662;2023-07-08T05:06:42;3.20;;;2.90;;
11646;SDS011;5880;52.342;9.662;2023-07-08T05:09:08;3.40;;;3.05;;
11646;SDS011;5880;52.342;9.662;2023-07-08T05:11:34;3.13;;;2.83;;
11646;SDS011;5880;52.342;9.662;2023-07-08T05:14:01;3.10;;;2.90;;
11646;SDS011;5880;52.342;9.662;2023-07-08T05:16:28;2.92;;;2.72;;
11646;SDS011;5880;52.342;9.662;2023-07-08T05:18:54;3.22;;;2.92;;
11646;SDS011;5880;52.342;9.662;2023-07-08T05:21:20;3.72;;;2.92;;
11646;SDS011;5880;52.342;9.662;2023-07-08T05:23:47;3.60;;;3.30;;
11646;SDS011;5880;52.342;9.662;2023-07-08T05:26:16;3.50;;;3.10;;
11646;SDS011;5880;52.342;9.662;2023-07-08T05:28:42;3.38;;;3.08;;
11646;SDS011;5880;52.342;9.662;2023-07-08T05:31:08;4.07;;;3.15;;
11646;SDS011;5880;52.342;9.662;2023-07-08T05:33:34;3.47;;;3.17;;
11646;SDS011;5880;52.342;9.662;2023-07-08T05:36:00;3.72;;;3.28;;
11646;SDS011;5880;52.342;9.662;2023-07-08T05:38:26;3.33;;;3.03;;
11646;SDS011;5880;52.342;9.662;2023-07-08T05:40:56;3.20;;;2.90;;
11646;SDS011;5880;52.342;9.662;2023-07-08T05:43:23;3.97;;;3.30;;
11646;SDS011;5880;52.342;9.662;2023-07-08T05:45:50;4.05;;;3.42;;
11646;SDS011;5880;52.342;9.662;2023-07-08T05:48:16;3.58;;;3.28;;
11646;SDS011;5880;52.342;9.662;2023-07-08T05:50:41;3.10;;;2.85;;
11646;SDS011;5880;52.342;9.662;2023-07-08T05:53:09;4.13;;;3.20;;
11646;SDS011;5880;52.342;9.662;2023-07-08T05:55:36;3.53;;;3.22;;
11646;SDS011;5880;52.342;9.662;2023-07-08T05:58:02;3.80;;;3.50;;
11646;SDS011;5880;52.342;9.662;2023-07-08T06:00:28;3.72;;;3.42;;
11646;SDS011;5880;52.342;9.662;2023-07-08T06:02:54;4.18;;;3.00;;
11646;SDS011;5880;52.342;9.662;2023-07-08T06:05:19;3.88;;;3.58;;
11646;SDS011;5880;52.342;9.662;2023-07-08T06:07:45;3.20;;;2.95;;
11646;SDS011;5880;52.342;9.662;2023-07-08T06:10:10;3.22;;;3.03;;
11646;SDS011;5880;52.342;9.662;2023-07-08T06:12:36;3.80;;;3.50;;
11646;SDS011;5880;52.342;9.662;2023-07-08T06:15:02;3.53;;;3.22;;
11646;SDS011;5880;52.342;9.662;2023-07-08T06:17:28;3.63;;;3.25;;
11646;SDS011;5880;52.342;9.662;2023-07-08T06:19:54;3.33;;;3.13;;
11646;SDS011;5880;52.342;9.662;2023-07-08T06:22:20;3.28;;;3.00;;
11646;SDS011;5880;52.342;9.662;2023-07-08T06:24:45;3.72;;;2.97;;
11646;SDS011;5880;52.342;9.662;2023-07-08T06:27:12;3.67;;;3.15;;
11646;SDS011;5880;52.342;9.662;2023-07-08T06:29:38;3.10;;;2.90;;
11646;SDS011;5880;52.342;9.662;2023-07-08T06:32:04;3.28;;;3.00;;
11646;SDS011;5880;52.342;9.662;2023-07-08T06:34:30;3.33;;;3.08;;
11646;SDS011;5880;52.342;9.662;2023-07-08T06:36:56;3.25;;;3.05;;
11646;SDS011;5880;52.342;9.662;2023-07-08T06:39:22;3.45;;;3.20;;
11646;SDS011;5880;52.342;9.662;2023-07-08T06:41:47;3.05;;;2.85;;
11646;SDS011;5880;52.342;9.662;2023-07-08T06:44:13;3.28;;;3.08;;
11646;SDS011;5880;52.342;9.662;2023-07-08T06:46:39;3.30;;;3.00;;
11646;SDS011;5880;52.342;9.662;2023-07-08T06:49:05;3.50;;;3.20;;
11646;SDS011;5880;52.342;9.662;2023-07-08T06:51:33;3.17;;;2.75;;
11646;SDS011;5880;52.342;9.662;2023-07-08T06:53:59;3.08;;;2.88;;
11646;SDS011;5880;52.342;9.662;2023-07-08T06:56:29;3.20;;;3.00;;
11646;SDS011;5880;52.342;9.662;2023-07-08T06:58:55;3.55;;;2.95;;
11646;SDS011;5880;52.342;9.662;2023-07-08T07:01:21;3.30;;;3.03;;
11646;SDS011;5880;52.342;9.662;2023-07-08T07:03:47;3.47;;;3.17;;
11646;SDS011;5880;52.342;9.662;2023-07-08T07:06:13;4.35;;;3.08;;
11646;SDS011;5880;52.342;9.662;2023-07-08T07:08:39;3.13;;;2.92;;
11646;SDS011;5880;52.342;9.662;2023-07-08T07:11:04;3.05;;;2.80;;
11646;SDS011;5880;52.342;9.662;2023-07-08T07:13:30;2.90;;;2.70;;
11646;SDS011;5880;52.342;9.662;2023-07-08T07:15:56;3.40;;;3.10;;
11646;SDS011;5880;52.342;9.662;2023-07-08T07:18:21;3.38;;;3.08;;
11646;SDS011;5880;52.342;9.662;2023-07-08T07:20:48;3.30;;;3.00;;
11646;SDS011;5880;52.342;9.662;2023-07-08T07:23:18;2.80;;;2.60;;
11646;SDS011;5880;52.342;9.662;2023-07-08T07:25:45;3.00;;;2.80;;
11646;SDS011;5880;52.342;9.662;2023-07-08T07:28:15;3.95;;;3.22;;
11646;SDS011;5880;52.342;9.662;2023-07-08T07:30:45;2.95;;;2.75;;
11646;SDS011;5880;52.342;9.662;2023-07-08T07:33:12;3.05;;;2.85;;
11646;SDS011;5880;52.342;9.662;2023-07-08T07:35:42;3.58;;;3.00;;
11646;SDS011;5880;52.342;9.662;2023-07-08T07:38:11;3.10;;;2.70;;
11646;SDS011;5880;52.342;9.662;2023-07-08T07:40:39;2.83;;;2.63;;
11646;SDS011;5880;52.342;9.662;2023-07-08T07:43:05;3.35;;;3.05;;
11646;SDS011;5880;52.342;9.662;2023-07-08T07:45:31;3.13;;;2.75;;
11646;SDS011;5880;52.342;9.662;2023-07-08T07:47:57;3.45;;;3.15;;
11646;SDS011;5880;52.342;9.662;2023-07-08T07:50:23;3.33;;;3.03;;
11646;SDS011;5880;52.342;9.662;2023-07-08T07:52:49;5.57;;;2.85;;
11646;SDS011;5880;52.342;9.662;2023-07-08T07:55:14;3.22;;;2.92;;
11646;SDS011;5880;52.342;9.662;2023-07-08T07:57:40;3.58;;;3.25;;
11646;SDS011;5880;52.342;9.662;2023-07-08T08:00:06;4.47;;;3.78;;
11646;SDS011;5880;52.342;9.662;2023-07-08T08:02:34;3.92;;;3.15;;
11646;SDS011;5880;52.342;9.662;2023-07-08T08:05:00;3.85;;;3.45;;
11646;SDS011;5880;52.342;9.662;2023-07-08T08:07:25;5.22;;;3.50;;
11646;SDS011;5880;52.342;9.662;2023-07-08T08:09:54;5.40;;;3.10;;
11646;SDS011;5880;52.342;9.662;2023-07-08T08:12:20;5.05;;;3.50;;
11646;SDS011;5880;52.342;9.662;2023-07-08T08:14:49;3.78;;;3.47;;
11646;SDS011;5880;52.342;9.662;2023-07-08T08:17:16;3.88;;;3.53;;
11646;SDS011;5880;52.342;9.662;2023-07-08T08:19:41;3.97;;;3.60;;
11646;SDS011;5880;52.342;9.662;2023-07-08T08:22:07;3.85;;;3.55;;
11646;SDS011;5880;52.342;9.662;2023-07-08T08:24:33;3.90;;;3.45;;
11646;SDS011;5880;52.342;9.662;2023-07-08T08:26:59;3.80;;;3.50;;
11646;SDS011;5880;52.342;9.662;2023-07-08T08:29:25;4.32;;;3.92;;
11646;SDS011;5880;52.342;9.662;2023-07-08T08:31:50;3.95;;;3.55;;
11646;SDS011;5880;52.342;9.662;2023-07-08T08:34:16;4.22;;;3.60;;
11646;SDS011;5880;52.342;9.662;2023-07-08T08:36:42;4.07;;;3.47;;
11646;SDS011;5880;52.342;9.662;2023-07-08T08:39:08;4.18;;;3.65;;
11646;SDS011;5880;52.342;9.662;2023-07-08T08:41:38;3.78;;;3.47;;
11646;SDS011;5880;52.342;9.662;2023-07-08T08:44:10;5.35;;;3.53;;
11646;SDS011;5880;52.342;9.662;2023-07-08T08:46:44;4.68;;;3.60;;
11646;SDS011;5880;52.342;9.662;2023-07-08T08:51:46;5.13;;;3.45;;
11646;SDS011;5880;52.342;9.662;2023-07-08T08:54:14;6.05;;;3.53;;
11646;SDS011;5880;52.342;9.662;2023-07-08T08:59:57;3.83;;;3.40;;
11646;SDS011;5880;52.342;9.662;2023-07-08T09:05:18;4.05;;;3.35;;
11646;SDS011;5880;52.342;9.662;2023-07-08T09:07:45;4.70;;;3.33;;
11646;SDS011;5880;52.342;9.662;2023-07-08T09:13:19;4.20;;;3.47;;
11646;SDS011;5880;52.342;9.662;2023-07-08T09:15:54;3.65;;;3.35;;
11646;SDS011;5880;52.342;9.662;2023-07-08T09:18:36;4.43;;;3.40;;
11646;SDS011;5880;52.342;9.662;2023-07-08T09:21:16;4.35;;;3.22;;
11646;SDS011;5880;52.342;9.662;2023-07-08T09:23:54;3.38;;;3.08;;
11646;SDS011;5880;52.342;9.662;2023-07-08T09:26:26;3.90;;;3.40;;
11646;SDS011;5880;52.342;9.662;2023-07-08T09:28:55;3.92;;;3.50;;
11646;SDS011;5880;52.342;9.662;2023-07-08T09:31:25;4.85;;;3.22;;
11646;SDS011;5880;52.342;9.662;2023-07-08T09:34:05;4.70;;;3.50;;
11646;SDS011;5880;52.342;9.662;2023-07-08T09:36:42;3.42;;;3.13;;
11646;SDS011;5880;52.342;9.662;2023-07-08T09:39:13;4.55;;;3.30;;
11646;SDS011;5880;52.342;9.662;2023-07-08T09:41:43;3.65;;;3.17;;
11646;SDS011;5880;52.342;9.662;2023-07-08T09:44:16;3.40;;;3.10;;
11646;SDS011;5880;52.342;9.662;2023-07-08T09:46:58;3.17;;;2.88;;
11646;SDS011;5880;52.342;9.662;2023-07-08T09:49:29;5.90;;;3.05;;
11646;SDS011;5880;52.342;9.662;2023-07-08T09:52:00;3.53;;;3.15;;
11646;SDS011;5880;52.342;9.662;2023-07-08T09:54:27;3.28;;;2.97;;
11646;SDS011;5880;52.342;9.662;2023-07-08T09:57:00;3.33;;;3.03;;
11646;SDS011;5880;52.342;9.662;2023-07-08T09:59:46;3.45;;;3.15;;
11646;SDS011;5880;52.342;9.662;2023-07-08T10:02:25;3.40;;;3.10;;
11646;SDS011;5880;52.342;9.662;2023-07-08T10:05:03;3.20;;;2.90;;
11646;SDS011;5880;52.342;9.662;2023-07-08T10:08:01;3.63;;;3.00;;
11646;SDS011;5880;52.342;9.662;2023-07-08T10:10:38;3.20;;;2.90;;
11646;SDS011;5880;52.342;9.662;2023-07-08T10:13:28;3.95;;;3.15;;
11646;SDS011;5880;52.342;9.662;2023-07-08T10:18:57;3.45;;;3.13;;
11646;SDS011;5880;52.342;9.662;2023-07-08T10:21:38;3.30;;;3.00;;
11646;SDS011;5880;52.342;9.662;2023-07-08T10:27:36;3.63;;;3.30;;
11646;SDS011;5880;52.342;9.662;2023-07-08T10:30:21;3.80;;;3.50;;
11646;SDS011;5880;52.342;9.662;2023-07-08T10:33:06;3.67;;;3.38;;
11646;SDS011;5880;52.342;9.662;2023-07-08T10:45:44;3.63;;;3.33;;
11646;SDS011;5880;52.342;9.662;2023-07-08T11:05:45;4.45;;;3.38;;
11646;SDS011;5880;52.342;9.662;2023-07-08T11:08:35;4.10;;;3.45;;
11646;SDS011;5880;52.342;9.662;2023-07-08T11:11:11;3.80;;;3.25;;
11646;SDS011;5880;52.342;9.662;2023-07-08T11:14:10;3.60;;;3.30;;
11646;SDS011;5880;52.342;9.662;2023-07-08T11:16:47;4.05;;;3.65;;
11646;SDS011;5880;52.342;9.662;2023-07-08T11:19:44;4.10;;;3.47;;
11646;SDS011;5880;52.342;9.662;2023-07-08T11:22:35;3.60;;;3.30;;
11646;SDS011;5880;52.342;9.662;2023-07-08T11:25:19;3.60;;;3.30;;
11646;SDS011;5880;52.342;9.662;2023-07-08T11:27:52;3.50;;;3.17;;
11646;SDS011;5880;52.342;9.662;2023-07-08T11:30:24;4.68;;;3.83;;
11646;SDS011;5880;52.342;9.662;2023-07-08T11:33:04;3.58;;;3.28;;
11646;SDS011;5880;52.342;9.662;2023-07-08T11:35:41;3.97;;;3.67;;
11646;SDS011;5880;52.342;9.662;2023-07-08T11:38:19;4.20;;;3.78;;
11646;SDS011;5880;52.342;9.662;2023-07-08T11:40:52;3.72;;;3.42;;
11646;SDS011;5880;52.342;9.662;2023-07-08T11:43:25;3.72;;;3.42;;
11646;SDS011;5880;52.342;9.662;2023-07-08T11:46:02;4.20;;;3.72;;
11646;SDS011;5880;52.342;9.662;2023-07-08T11:48:35;4.25;;;3.85;;
11646;SDS011;5880;52.342;9.662;2023-07-08T11:51:22;4.20;;;3.80;;
11646;SDS011;5880;52.342;9.662;2023-07-08T11:54:00;3.58;;;3.28;;
11646;SDS011;5880;52.342;9.662;2023-07-08T11:59:23;3.95;;;3.65;;
11646;SDS011;5880;52.342;9.662;2023-07-08T12:01:54;4.07;;;3.65;;
11646;SDS011;5880;52.342;9.662;2023-07-08T12:04:31;4.13;;;3.72;;
11646;SDS011;5880;52.342;9.662;2023-07-08T12:07:06;3.65;;;3.35;;
11646;SDS011;5880;52.342;9.662;2023-07-08T12:09:59;4.22;;;3.80;;
11646;SDS011;5880;52.342;9.662;2023-07-08T12:12:47;3.95;;;3.63;;
11646;SDS011;5880;52.342;9.662;2023-07-08T12:15:27;4.00;;;3.65;;
11646;SDS011;5880;52.342;9.662;2023-07-08T12:17:58;4.65;;;4.15;;
11646;SDS011;5880;52.342;9.662;2023-07-08T12:20:32;4.28;;;3.75;;
11646;SDS011;5880;52.342;9.662;2023-07-08T12:23:02;4.47;;;4.07;;
11646;SDS011;5880;52.342;9.662;2023-07-08T12:25:36;5.03;;;4.00;;
11646;SDS011;5880;52.342;9.662;2023-07-08T12:28:02;4.60;;;3.90;;
11646;SDS011;5880;52.342;9.662;2023-07-08T12:30:29;4.05;;;3.72;;
11646;SDS011;5880;52.342;9.662;2023-07-08T12:32:58;3.85;;;3.42;;
11646;SDS011;5880;52.342;9.662;2023-07-08T12:35:29;4.60;;;4.20;;
11646;SDS011;5880;52.342;9.662;2023-07-08T12:37:59;4.28;;;3.88;;
11646;SDS011;5880;52.342;9.662;2023-07-08T12:40:30;5.10;;;4.22;;
11646;SDS011;5880;52.342;9.662;2023-07-08T12:42:57;4.10;;;3.70;;
11646;SDS011;5880;52.342;9.662;2023-07-08T12:45:27;4.47;;;4.07;;
11646;SDS011;5880;52.342;9.662;2023-07-08T12:47:56;4.22;;;3.83;;
11646;SDS011;5880;52.342;9.662;2023-07-08T12:50:22;4.15;;;3.80;;
11646;SDS011;5880;52.342;9.662;2023-07-08T12:52:47;4.25;;;3.85;;
11646;SDS011;5880;52.342;9.662;2023-07-08T12:55:14;3.80;;;3.50;;
11646;SDS011;5880;52.342;9.662;2023-07-08T12:57:42;4.65;;;3.80;;
11646;SDS011;5880;52.342;9.662;2023-07-08T13:00:15;4.22;;;3.80;;
11646;SDS011;5880;52.342;9.662;2023-07-08T13:02:56;4.45;;;3.80;;
11646;SDS011;5880;52.342;9.662;2023-07-08T13:05:46;3.80;;;3.50;;
11646;SDS011;5880;52.342;9.662;2023-07-08T13:08:15;3.70;;;3.40;;
11646;SDS011;5880;52.342;9.662;2023-07-08T13:10:46;4.40;;;3.90;;
11646;SDS011;5880;52.342;9.662;2023-07-08T13:13:18;5.45;;;3.65;;
11646;SDS011;5880;52.342;9.662;2023-07-08T13:15:49;4.00;;;3.70;;
11646;SDS011;5880;52.342;9.662;2023-07-08T13:18:16;3.95;;;3.60;;
11646;SDS011;5880;52.342;9.662;2023-07-08T13:20:54;4.50;;;4.03;;
11646;SDS011;5880;52.342;9.662;2023-07-08T13:23:21;4.00;;;3.70;;
11646;SDS011;5880;52.342;9.662;2023-07-08T13:25:51;3.78;;;3.45;;
11646;SDS011;5880;52.342;9.662;2023-07-08T13:28:25;6.88;;;3.72;;
11646;SDS011;5880;52.342;9.662;2023-07-08T13:30:55;3.90;;;3.60;;
11646;SDS011;5880;52.342;9.662;2023-07-08T13:33:30;4.15;;;3.67;;
11646;SDS011;5880;52.342;9.662;2023-07-08T13:36:00;3.63;;;3.33;;
11646;SDS011;5880;52.342;9.662;2023-07-08T13:38:33;3.70;;;3.40;;
11646;SDS011;5880;52.342;9.662;2023-07-08T13:41:03;4.20;;;3.80;;
11646;SDS011;5880;52.342;9.662;2023-07-08T13:43:32;4.50;;;4.10;;
11646;SDS011;5880;52.342;9.662;2023-07-08T13:46:02;3.85;;;3.55;;
11646;SDS011;5880;52.342;9.662;2023-07-08T13:48:41;3.72;;;3.42;;
11646;SDS011;5880;52.342;9.662;2023-07-08T13:53:49;4.05;;;3.75;;
11646;SDS011;5880;52.342;9.662;2023-07-08T13:56:25;4.35;;;3.95;;
11646;SDS011;5880;52.342;9.662;2023-07-08T13:59:05;4.93;;;3.83;;
11646;SDS011;5880;52.342;9.662;2023-07-08T14:01:43;6.50;;;4.30;;
11646;SDS011;5880;52.342;9.662;2023-07-08T14:04:10;4.07;;;3.67;;
11646;SDS011;5880;52.342;9.662;2023-07-08T14:06:42;5.13;;;4.00;;
11646;SDS011;5880;52.342;9.662;2023-07-08T14:09:15;4.72;;;4.10;;
11646;SDS011;5880;52.342;9.662;2023-07-08T14:11:45;4.07;;;3.78;;
11646;SDS011;5880;52.342;9.662;2023-07-08T14:14:12;4.20;;;3.85;;
11646;SDS011;5880;52.342;9.662;2023-07-08T14:16:48;4.22;;;3.70;;
11646;SDS011;5880;52.342;9.662;2023-07-08T14:19:25;4.35;;;3.95;;
11646;SDS011;5880;52.342;9.662;2023-07-08T14:21:55;3.72;;;3.42;;
11646;SDS011;5880;52.342;9.662;2023-07-08T14:24:24;4.28;;;3.75;;
11646;SDS011;5880;52.342;9.662;2023-07-08T14:26:51;3.70;;;3.40;;
11646;SDS011;5880;52.342;9.662;2023-07-08T14:29:18;4.30;;;3.90;;
11646;SDS011;5880;52.342;9.662;2023-07-08T14:31:44;3.80;;;3.50;;
11646;SDS011;5880;52.342;9.662;2023-07-08T14:34:11;3.78;;;3.45;;
11646;SDS011;5880;52.342;9.662;2023-07-08T14:36:46;3.80;;;3.50;;
11646;SDS011;5880;52.342;9.662;2023-07-08T14:39:12;3.65;;;3.35;;
11646;SDS011;5880;52.342;9.662;2023-07-08T14:41:41;5.18;;;3.70;;
11646;SDS011;5880;52.342;9.662;2023-07-08T14:44:22;4.25;;;3.38;;
11646;SDS011;5880;52.342;9.662;2023-07-08T14:46:52;4.88;;;3.80;;
11646;SDS011;5880;52.342;9.662;2023-07-08T14:49:20;3.80;;;3.50;;
11646;SDS011;5880;52.342;9.662;2023-07-08T14:51:47;3.92;;;3.63;;
11646;SDS011;5880;52.342;9.662;2023-07-08T14:54:14;3.92;;;3.63;;
11646;SDS011;5880;52.342;9.662;2023-07-08T14:56:40;4.97;;;3.63;;
11646;SDS011;5880;52.342;9.662;2023-07-08T14:59:07;5.07;;;3.80;;
11646;SDS011;5880;52.342;9.662;2023-07-08T15:01:41;3.78;;;3.47;;
11646;SDS011;5880;52.342;9.662;2023-07-08T15:04:09;3.50;;;3.20;;
11646;SDS011;5880;52.342;9.662;2023-07-08T15:06:37;3.55;;;3.30;;
11646;SDS011;5880;52.342;9.662;2023-07-08T15:09:03;3.85;;;3.55;;
11646;SDS011;5880;52.342;9.662;2023-07-08T15:11:30;4.10;;;3.70;;
11646;SDS011;5880;52.342;9.662;2023-07-08T15:13:57;3.90;;;3.60;;
11646;SDS011;5880;52.342;9.662;2023-07-08T15:16:24;3.75;;;3.45;;
11646;SDS011;5880;52.342;9.662;2023-07-08T15:18:50;3.83;;;3.50;;
11646;SDS011;5880;52.342;9.662;2023-07-08T15:21:16;4.35;;;3.60;;
11646;SDS011;5880;52.342;9.662;2023-07-08T15:23:41;3.80;;;3.50;;
11646;SDS011;5880;52.342;9.662;2023-07-08T15:26:09;4.15;;;3.75;;
11646;SDS011;5880;52.342;9.662;2023-07-08T15:28:43;4.00;;;3.70;;
11646;SDS011;5880;52.342;9.662;2023-07-08T15:31:16;3.85;;;3.50;;
11646;SDS011;5880;52.342;9.662;2023-07-08T15:33:45;4.10;;;3.38;;
11646;SDS011;5880;52.342;9.662;2023-07-08T15:36:13;3.60;;;3.30;;
11646;SDS011;5880;52.342;9.662;2023-07-08T15:38:39;3.55;;;3.25;;
11646;SDS011;5880;52.342;9.662;2023-07-08T15:41:08;4.15;;;3.75;;
11646;SDS011;5880;52.342;9.662;2023-07-08T15:43:44;3.80;;;3.50;;
11646;SDS011;5880;52.342;9.662;2023-07-08T15:46:10;3.90;;;3.60;;
11646;SDS011;5880;52.342;9.662;2023-07-08T15:48:36;3.90;;;3.30;;
11646;SDS011;5880;52.342;9.662;2023-07-08T15:51:01;4.10;;;3.67;;
11646;SDS011;5880;52.342;9.662;2023-07-08T15:53:27;3.63;;;3.33;;
11646;SDS011;5880;52.342;9.662;2023-07-08T15:55:52;4.13;;;3.72;;
11646;SDS011;5880;52.342;9.662;2023-07-08T15:58:21;3.58;;;3.15;;
11646;SDS011;5880;52.342;9.662;2023-07-08T16:00:56;6.40;;;3.95;;
11646;SDS011;5880;52.342;9.662;2023-07-08T16:03:25;3.97;;;3.67;;
11646;SDS011;5880;52.342;9.662;2023-07-08T16:05:54;3.72;;;3.42;;
11646;SDS011;5880;52.342;9.662;2023-07-08T16:08:22;4.15;;;3.75;;
11646;SDS011;5880;52.342;9.662;2023-07-08T16:10:51;3.80;;;3.50;;
11646;SDS011;5880;52.342;9.662;2023-07-08T16:13:23;4.43;;;4.03;;